sensor_id;sensor_type;location;lat;lon;timestamp;P1;durP1;ratioP1;P2;durP2;ratioP2
70406;SDS011;57821;52.202;0.154;2023-05-10T00:00:01;15.77;;;6.15;;
70406;SDS011;57821;52.202;0.154;2023-05-10T00:02:38;17.55;;;6.55;;
70406;SDS011;57821;52.202;0.154;2023-05-10T00:05:05;19.80;;;6.82;;
70406;SDS011;57821;52.202;0.154;2023-05-10T00:07:32;17.15;;;7.57;;
70406;SDS011;57821;52.202;0.154;2023-05-10T00:09:59;15.70;;;7.25;;
70406;SDS011;57821;52.202;0.154;2023-05-10T00:12:25;18.08;;;7.47;;
70406;SDS011;57821;52.202;0.154;2023-05-10T00:14:52;24.63;;;8.63;;
70406;SDS011;57821;52.202;0.154;2023-05-10T00:17:18;29.45;;;9.73;;
70406;SDS011;57821;52.202;0.154;2023-05-10T00:19:45;17.75;;;8.85;;
70406;SDS011;57821;52.202;0.154;2023-05-10T00:22:11;22.50;;;9.55;;
70406;SDS011;57821;52.202;0.154;2023-05-10T00:24:38;24.13;;;10.00;;
70406;SDS011;57821;52.202;0.154;2023-05-10T00:27:04;24.20;;;9.77;;
70406;SDS011;57821;52.202;0.154;2023-05-10T00:29:31;28.23;;;10.80;;
70406;SDS011;57821;52.202;0.154;2023-05-10T00:31:57;25.10;;;11.63;;
70406;SDS011;57821;52.202;0.154;2023-05-10T00:34:24;30.35;;;11.30;;
70406;SDS011;57821;52.202;0.154;2023-05-10T00:36:51;25.77;;;11.38;;
70406;SDS011;57821;52.202;0.154;2023-05-10T00:39:17;33.10;;;14.15;;
70406;SDS011;57821;52.202;0.154;2023-05-10T00:41:44;29.45;;;12.88;;
70406;SDS011;57821;52.202;0.154;2023-05-10T00:44:11;25.92;;;12.15;;
70406;SDS011;57821;52.202;0.154;2023-05-10T00:46:37;30.42;;;13.45;;
70406;SDS011;57821;52.202;0.154;2023-05-10T00:49:04;31.92;;;14.73;;
70406;SDS011;57821;52.202;0.154;2023-05-10T00:51:32;29.85;;;13.30;;
70406;SDS011;57821;52.202;0.154;2023-05-10T00:53:59;35.72;;;14.68;;
70406;SDS011;57821;52.202;0.154;2023-05-10T00:56:25;26.48;;;13.10;;
70406;SDS011;57821;52.202;0.154;2023-05-10T00:58:53;37.78;;;14.40;;
70406;SDS011;57821;52.202;0.154;2023-05-10T01:01:19;32.70;;;12.85;;
70406;SDS011;57821;52.202;0.154;2023-05-10T01:03:46;31.25;;;14.43;;
70406;SDS011;57821;52.202;0.154;2023-05-10T01:06:14;38.50;;;13.18;;
70406;SDS011;57821;52.202;0.154;2023-05-10T01:08:41;31.50;;;12.52;;
70406;SDS011;57821;52.202;0.154;2023-05-10T01:11:07;25.63;;;10.27;;
70406;SDS011;57821;52.202;0.154;2023-05-10T01:13:38;26.52;;;10.63;;
70406;SDS011;57821;52.202;0.154;2023-05-10T01:16:07;21.35;;;8.57;;
70406;SDS011;57821;52.202;0.154;2023-05-10T01:18:36;26.50;;;10.43;;
70406;SDS011;57821;52.202;0.154;2023-05-10T01:23:44;23.13;;;8.32;;
70406;SDS011;57821;52.202;0.154;2023-05-10T01:35:49;16.40;;;7.07;;
70406;SDS011;57821;52.202;0.154;2023-05-10T01:41:19;22.08;;;6.88;;
70406;SDS011;57821;52.202;0.154;2023-05-10T01:44:06;21.92;;;7.53;;
70406;SDS011;57821;52.202;0.154;2023-05-10T01:46:40;31.02;;;8.38;;
70406;SDS011;57821;52.202;0.154;2023-05-10T01:49:29;26.00;;;8.10;;
70406;SDS011;57821;52.202;0.154;2023-05-10T01:51:59;21.83;;;8.00;;
70406;SDS011;57821;52.202;0.154;2023-05-10T01:54:30;23.52;;;7.07;;
70406;SDS011;57821;52.202;0.154;2023-05-10T01:57:01;22.02;;;7.07;;
70406;SDS011;57821;52.202;0.154;2023-05-10T01:59:33;20.40;;;7.05;;
70406;SDS011;57821;52.202;0.154;2023-05-10T02:02:01;23.92;;;7.45;;
70406;SDS011;57821;52.202;0.154;2023-05-10T02:04:30;22.05;;;7.63;;
70406;SDS011;57821;52.202;0.154;2023-05-10T02:06:59;17.38;;;6.03;;
70406;SDS011;57821;52.202;0.154;2023-05-10T02:09:26;18.63;;;6.68;;
70406;SDS011;57821;52.202;0.154;2023-05-10T02:11:55;18.50;;;6.93;;
70406;SDS011;57821;52.202;0.154;2023-05-10T02:14:25;18.58;;;5.85;;
70406;SDS011;57821;52.202;0.154;2023-05-10T02:16:53;25.40;;;7.20;;
70406;SDS011;57821;52.202;0.154;2023-05-10T02:19:22;19.10;;;6.53;;
70406;SDS011;57821;52.202;0.154;2023-05-10T02:21:51;20.55;;;6.93;;
70406;SDS011;57821;52.202;0.154;2023-05-10T02:24:18;20.50;;;6.80;;
70406;SDS011;57821;52.202;0.154;2023-05-10T02:26:46;25.65;;;6.38;;
70406;SDS011;57821;52.202;0.154;2023-05-10T02:29:15;25.33;;;5.47;;
70406;SDS011;57821;52.202;0.154;2023-05-10T02:31:43;20.63;;;5.20;;
70406;SDS011;57821;52.202;0.154;2023-05-10T02:34:11;15.60;;;4.65;;
70406;SDS011;57821;52.202;0.154;2023-05-10T02:36:39;15.00;;;4.70;;
70406;SDS011;57821;52.202;0.154;2023-05-10T02:39:07;21.65;;;4.70;;
70406;SDS011;57821;52.202;0.154;2023-05-10T02:41:35;14.38;;;4.47;;
70406;SDS011;57821;52.202;0.154;2023-05-10T02:44:04;15.27;;;4.40;;
70406;SDS011;57821;52.202;0.154;2023-05-10T02:46:33;15.25;;;4.35;;
70406;SDS011;57821;52.202;0.154;2023-05-10T02:49:01;17.95;;;4.53;;
70406;SDS011;57821;52.202;0.154;2023-05-10T02:51:28;16.92;;;4.60;;
70406;SDS011;57821;52.202;0.154;2023-05-10T02:53:57;16.45;;;3.88;;
70406;SDS011;57821;52.202;0.154;2023-05-10T02:56:31;19.42;;;4.30;;
70406;SDS011;57821;52.202;0.154;2023-05-10T02:59:00;16.80;;;4.20;;
70406;SDS011;57821;52.202;0.154;2023-05-10T03:01:27;15.65;;;4.35;;
70406;SDS011;57821;52.202;0.154;2023-05-10T03:03:54;13.93;;;4.45;;
70406;SDS011;57821;52.202;0.154;2023-05-10T03:06:20;20.95;;;4.30;;
70406;SDS011;57821;52.202;0.154;2023-05-10T03:08:47;23.55;;;6.82;;
70406;SDS011;57821;52.202;0.154;2023-05-10T03:16:24;22.80;;;5.03;;
70406;SDS011;57821;52.202;0.154;2023-05-10T03:19:17;17.85;;;4.43;;
70406;SDS011;57821;52.202;0.154;2023-05-10T03:22:08;14.93;;;4.10;;
70406;SDS011;57821;52.202;0.154;2023-05-10T03:24:37;17.15;;;4.30;;
70406;SDS011;57821;52.202;0.154;2023-05-10T03:27:08;13.07;;;3.45;;
70406;SDS011;57821;52.202;0.154;2023-05-10T03:29:37;18.60;;;3.70;;
70406;SDS011;57821;52.202;0.154;2023-05-10T03:32:05;15.18;;;3.75;;
70406;SDS011;57821;52.202;0.154;2023-05-10T03:34:32;15.25;;;3.80;;
70406;SDS011;57821;52.202;0.154;2023-05-10T03:36:59;19.17;;;4.35;;
70406;SDS011;57821;52.202;0.154;2023-05-10T03:39:29;27.33;;;4.18;;
70406;SDS011;57821;52.202;0.154;2023-05-10T03:41:58;15.50;;;4.63;;
70406;SDS011;57821;52.202;0.154;2023-05-10T03:44:25;21.95;;;4.57;;
70406;SDS011;57821;52.202;0.154;2023-05-10T03:46:51;17.98;;;4.25;;
70406;SDS011;57821;52.202;0.154;2023-05-10T03:49:18;16.80;;;3.63;;
70406;SDS011;57821;52.202;0.154;2023-05-10T03:51:45;14.23;;;4.05;;
70406;SDS011;57821;52.202;0.154;2023-05-10T03:54:11;13.07;;;3.90;;
70406;SDS011;57821;52.202;0.154;2023-05-10T03:56:38;17.98;;;3.58;;
70406;SDS011;57821;52.202;0.154;2023-05-10T03:59:05;13.88;;;3.92;;
70406;SDS011;57821;52.202;0.154;2023-05-10T04:01:32;23.48;;;4.90;;
70406;SDS011;57821;52.202;0.154;2023-05-10T04:03:58;15.13;;;3.90;;
70406;SDS011;57821;52.202;0.154;2023-05-10T04:06:25;18.17;;;4.80;;
70406;SDS011;57821;52.202;0.154;2023-05-10T04:08:53;21.42;;;4.90;;
70406;SDS011;57821;52.202;0.154;2023-05-10T04:11:20;18.85;;;3.83;;
70406;SDS011;57821;52.202;0.154;2023-05-10T04:13:46;17.83;;;4.20;;
70406;SDS011;57821;52.202;0.154;2023-05-10T04:16:13;15.35;;;4.00;;
70406;SDS011;57821;52.202;0.154;2023-05-10T04:18:39;23.85;;;4.75;;
70406;SDS011;57821;52.202;0.154;2023-05-10T04:21:15;19.88;;;5.07;;
70406;SDS011;57821;52.202;0.154;2023-05-10T04:23:41;15.48;;;4.82;;
70406;SDS011;57821;52.202;0.154;2023-05-10T04:26:08;22.52;;;4.15;;
70406;SDS011;57821;52.202;0.154;2023-05-10T04:28:35;18.00;;;4.70;;
70406;SDS011;57821;52.202;0.154;2023-05-10T04:31:05;21.77;;;4.85;;
70406;SDS011;57821;52.202;0.154;2023-05-10T04:33:33;26.73;;;4.93;;
70406;SDS011;57821;52.202;0.154;2023-05-10T04:36:00;18.85;;;5.07;;
70406;SDS011;57821;52.202;0.154;2023-05-10T04:38:27;19.10;;;5.25;;
70406;SDS011;57821;52.202;0.154;2023-05-10T04:40:54;16.58;;;4.75;;
70406;SDS011;57821;52.202;0.154;2023-05-10T04:43:20;22.10;;;5.47;;
70406;SDS011;57821;52.202;0.154;2023-05-10T04:45:47;24.88;;;5.40;;
70406;SDS011;57821;52.202;0.154;2023-05-10T04:48:13;19.67;;;4.95;;
70406;SDS011;57821;52.202;0.154;2023-05-10T04:50:40;18.45;;;5.78;;
70406;SDS011;57821;52.202;0.154;2023-05-10T04:53:06;24.55;;;5.40;;
70406;SDS011;57821;52.202;0.154;2023-05-10T04:55:33;24.95;;;5.65;;
70406;SDS011;57821;52.202;0.154;2023-05-10T04:57:59;24.70;;;5.15;;
70406;SDS011;57821;52.202;0.154;2023-05-10T05:00:26;30.92;;;7.10;;
70406;SDS011;57821;52.202;0.154;2023-05-10T05:02:54;21.73;;;5.57;;
70406;SDS011;57821;52.202;0.154;2023-05-10T05:05:21;21.80;;;5.53;;
70406;SDS011;57821;52.202;0.154;2023-05-10T05:07:47;22.73;;;5.32;;
70406;SDS011;57821;52.202;0.154;2023-05-10T05:10:14;27.85;;;5.22;;
70406;SDS011;57821;52.202;0.154;2023-05-10T05:12:41;22.83;;;5.93;;
70406;SDS011;57821;52.202;0.154;2023-05-10T05:15:08;24.30;;;5.82;;
70406;SDS011;57821;52.202;0.154;2023-05-10T05:17:35;19.63;;;5.22;;
70406;SDS011;57821;52.202;0.154;2023-05-10T05:20:01;18.73;;;5.13;;
70406;SDS011;57821;52.202;0.154;2023-05-10T05:22:28;18.92;;;5.15;;
70406;SDS011;57821;52.202;0.154;2023-05-10T05:24:55;21.65;;;4.90;;
70406;SDS011;57821;52.202;0.154;2023-05-10T05:27:22;19.15;;;5.03;;
70406;SDS011;57821;52.202;0.154;2023-05-10T05:29:52;26.00;;;5.28;;
70406;SDS011;57821;52.202;0.154;2023-05-10T05:32:20;23.83;;;5.53;;
70406;SDS011;57821;52.202;0.154;2023-05-10T05:34:47;18.33;;;4.78;;
70406;SDS011;57821;52.202;0.154;2023-05-10T05:37:14;19.55;;;4.72;;
70406;SDS011;57821;52.202;0.154;2023-05-10T05:39:41;14.63;;;4.53;;
70406;SDS011;57821;52.202;0.154;2023-05-10T05:42:09;25.02;;;5.25;;
70406;SDS011;57821;52.202;0.154;2023-05-10T05:44:36;26.15;;;5.53;;
70406;SDS011;57821;52.202;0.154;2023-05-10T05:47:02;16.20;;;4.50;;
70406;SDS011;57821;52.202;0.154;2023-05-10T05:49:29;18.90;;;4.72;;
70406;SDS011;57821;52.202;0.154;2023-05-10T05:51:59;22.27;;;5.43;;
70406;SDS011;57821;52.202;0.154;2023-05-10T05:54:27;22.40;;;6.27;;
70406;SDS011;57821;52.202;0.154;2023-05-10T05:56:54;27.25;;;4.68;;
70406;SDS011;57821;52.202;0.154;2023-05-10T05:59:21;18.30;;;5.47;;
70406;SDS011;57821;52.202;0.154;2023-05-10T06:01:48;18.83;;;4.95;;
70406;SDS011;57821;52.202;0.154;2023-05-10T06:04:14;21.08;;;5.30;;
70406;SDS011;57821;52.202;0.154;2023-05-10T06:06:41;27.73;;;8.13;;
70406;SDS011;57821;52.202;0.154;2023-05-10T06:09:08;21.77;;;4.90;;
70406;SDS011;57821;52.202;0.154;2023-05-10T06:11:35;18.17;;;5.22;;
70406;SDS011;57821;52.202;0.154;2023-05-10T06:14:03;21.02;;;5.43;;
70406;SDS011;57821;52.202;0.154;2023-05-10T06:16:30;20.05;;;5.32;;
70406;SDS011;57821;52.202;0.154;2023-05-10T06:18:57;20.27;;;5.22;;
70406;SDS011;57821;52.202;0.154;2023-05-10T06:21:24;24.38;;;5.43;;
70406;SDS011;57821;52.202;0.154;2023-05-10T06:23:50;24.30;;;5.30;;
70406;SDS011;57821;52.202;0.154;2023-05-10T06:26:17;22.45;;;5.63;;
70406;SDS011;57821;52.202;0.154;2023-05-10T06:28:44;20.02;;;5.40;;
70406;SDS011;57821;52.202;0.154;2023-05-10T06:31:10;22.00;;;6.20;;
70406;SDS011;57821;52.202;0.154;2023-05-10T06:33:37;18.80;;;6.00;;
70406;SDS011;57821;52.202;0.154;2023-05-10T06:36:03;25.00;;;6.18;;
70406;SDS011;57821;52.202;0.154;2023-05-10T06:38:30;17.83;;;5.60;;
70406;SDS011;57821;52.202;0.154;2023-05-10T06:40:56;22.33;;;6.82;;
70406;SDS011;57821;52.202;0.154;2023-05-10T06:43:23;19.42;;;5.07;;
70406;SDS011;57821;52.202;0.154;2023-05-10T06:45:50;24.10;;;7.53;;
70406;SDS011;57821;52.202;0.154;2023-05-10T06:48:16;20.88;;;6.00;;
70406;SDS011;57821;52.202;0.154;2023-05-10T06:50:43;20.90;;;6.82;;
70406;SDS011;57821;52.202;0.154;2023-05-10T06:53:10;22.85;;;6.70;;
70406;SDS011;57821;52.202;0.154;2023-05-10T06:55:36;22.50;;;7.00;;
70406;SDS011;57821;52.202;0.154;2023-05-10T06:58:03;20.52;;;6.35;;
70406;SDS011;57821;52.202;0.154;2023-05-10T07:00:29;19.63;;;6.13;;
70406;SDS011;57821;52.202;0.154;2023-05-10T07:02:56;17.10;;;6.05;;
70406;SDS011;57821;52.202;0.154;2023-05-10T07:05:23;28.73;;;6.40;;
70406;SDS011;57821;52.202;0.154;2023-05-10T07:07:49;20.88;;;5.63;;
70406;SDS011;57821;52.202;0.154;2023-05-10T07:10:16;18.88;;;6.22;;
70406;SDS011;57821;52.202;0.154;2023-05-10T07:12:42;22.27;;;6.80;;
70406;SDS011;57821;52.202;0.154;2023-05-10T07:15:09;21.35;;;5.63;;
70406;SDS011;57821;52.202;0.154;2023-05-10T07:17:36;26.92;;;6.40;;
70406;SDS011;57821;52.202;0.154;2023-05-10T07:20:03;20.05;;;6.00;;
70406;SDS011;57821;52.202;0.154;2023-05-10T07:22:30;16.42;;;5.05;;
70406;SDS011;57821;52.202;0.154;2023-05-10T07:24:57;17.45;;;5.40;;
70406;SDS011;57821;52.202;0.154;2023-05-10T07:27:24;15.10;;;5.32;;
70406;SDS011;57821;52.202;0.154;2023-05-10T07:29:50;18.75;;;5.90;;
70406;SDS011;57821;52.202;0.154;2023-05-10T07:32:17;22.95;;;6.45;;
70406;SDS011;57821;52.202;0.154;2023-05-10T07:34:43;13.63;;;4.75;;
70406;SDS011;57821;52.202;0.154;2023-05-10T07:37:10;14.40;;;5.35;;
70406;SDS011;57821;52.202;0.154;2023-05-10T07:39:36;19.52;;;5.45;;
70406;SDS011;57821;52.202;0.154;2023-05-10T07:42:03;15.40;;;5.25;;
70406;SDS011;57821;52.202;0.154;2023-05-10T07:44:29;15.63;;;5.00;;
70406;SDS011;57821;52.202;0.154;2023-05-10T07:46:56;14.45;;;4.10;;
70406;SDS011;57821;52.202;0.154;2023-05-10T07:49:23;12.73;;;5.07;;
70406;SDS011;57821;52.202;0.154;2023-05-10T07:51:49;15.82;;;4.90;;
70406;SDS011;57821;52.202;0.154;2023-05-10T07:54:16;17.38;;;5.22;;
70406;SDS011;57821;52.202;0.154;2023-05-10T07:56:43;18.75;;;4.10;;
70406;SDS011;57821;52.202;0.154;2023-05-10T07:59:09;9.68;;;3.78;;
70406;SDS011;57821;52.202;0.154;2023-05-10T08:01:38;12.80;;;3.67;;
70406;SDS011;57821;52.202;0.154;2023-05-10T08:04:04;12.73;;;3.53;;
70406;SDS011;57821;52.202;0.154;2023-05-10T08:06:31;13.52;;;3.88;;
70406;SDS011;57821;52.202;0.154;2023-05-10T08:08:57;12.50;;;3.67;;
70406;SDS011;57821;52.202;0.154;2023-05-10T08:11:24;12.00;;;4.25;;
70406;SDS011;57821;52.202;0.154;2023-05-10T08:13:51;13.23;;;3.33;;
70406;SDS011;57821;52.202;0.154;2023-05-10T08:16:18;10.52;;;3.17;;
70406;SDS011;57821;52.202;0.154;2023-05-10T08:18:44;15.38;;;3.33;;
70406;SDS011;57821;52.202;0.154;2023-05-10T08:21:12;10.68;;;2.90;;
70406;SDS011;57821;52.202;0.154;2023-05-10T08:23:39;16.15;;;4.35;;
70406;SDS011;57821;52.202;0.154;2023-05-10T08:26:06;11.77;;;3.47;;
70406;SDS011;57821;52.202;0.154;2023-05-10T08:28:33;11.35;;;3.03;;
70406;SDS011;57821;52.202;0.154;2023-05-10T08:30:59;13.68;;;3.75;;
70406;SDS011;57821;52.202;0.154;2023-05-10T08:33:25;14.07;;;3.95;;
70406;SDS011;57821;52.202;0.154;2023-05-10T08:35:52;12.82;;;3.40;;
70406;SDS011;57821;52.202;0.154;2023-05-10T08:38:19;15.02;;;3.47;;
70406;SDS011;57821;52.202;0.154;2023-05-10T08:40:45;11.40;;;3.55;;
70406;SDS011;57821;52.202;0.154;2023-05-10T08:43:15;13.13;;;3.17;;
70406;SDS011;57821;52.202;0.154;2023-05-10T08:45:42;8.55;;;2.72;;
70406;SDS011;57821;52.202;0.154;2023-05-10T08:48:10;9.25;;;2.80;;
70406;SDS011;57821;52.202;0.154;2023-05-10T08:50:38;8.35;;;2.50;;
70406;SDS011;57821;52.202;0.154;2023-05-10T08:53:09;10.02;;;3.00;;
70406;SDS011;57821;52.202;0.154;2023-05-10T08:55:38;10.10;;;2.50;;
70406;SDS011;57821;52.202;0.154;2023-05-10T08:58:06;11.00;;;2.42;;
70406;SDS011;57821;52.202;0.154;2023-05-10T09:00:33;12.18;;;2.88;;
70406;SDS011;57821;52.202;0.154;2023-05-10T09:03:00;12.27;;;3.33;;
70406;SDS011;57821;52.202;0.154;2023-05-10T09:05:28;12.52;;;2.67;;
70406;SDS011;57821;52.202;0.154;2023-05-10T09:07:54;12.23;;;3.35;;
70406;SDS011;57821;52.202;0.154;2023-05-10T09:10:21;7.78;;;2.15;;
70406;SDS011;57821;52.202;0.154;2023-05-10T09:12:49;10.23;;;2.45;;
70406;SDS011;57821;52.202;0.154;2023-05-10T09:15:16;8.93;;;2.70;;
70406;SDS011;57821;52.202;0.154;2023-05-10T09:17:43;9.82;;;2.35;;
70406;SDS011;57821;52.202;0.154;2023-05-10T09:20:11;9.75;;;2.72;;
70406;SDS011;57821;52.202;0.154;2023-05-10T09:22:37;7.78;;;2.47;;
70406;SDS011;57821;52.202;0.154;2023-05-10T09:27:30;11.32;;;2.58;;
70406;SDS011;57821;52.202;0.154;2023-05-10T09:29:57;9.55;;;2.45;;
70406;SDS011;57821;52.202;0.154;2023-05-10T09:35:25;9.65;;;2.33;;
70406;SDS011;57821;52.202;0.154;2023-05-10T09:38:02;8.68;;;2.67;;
70406;SDS011;57821;52.202;0.154;2023-05-10T09:40:30;9.32;;;2.75;;
70406;SDS011;57821;52.202;0.154;2023-05-10T09:45:30;9.82;;;2.45;;
70406;SDS011;57821;52.202;0.154;2023-05-10T09:48:01;9.43;;;2.50;;
70406;SDS011;57821;52.202;0.154;2023-05-10T09:50:29;8.90;;;2.17;;
70406;SDS011;57821;52.202;0.154;2023-05-10T09:52:57;7.50;;;1.73;;
70406;SDS011;57821;52.202;0.154;2023-05-10T09:55:26;8.80;;;2.30;;
70406;SDS011;57821;52.202;0.154;2023-05-10T09:58:13;10.32;;;1.80;;
70406;SDS011;57821;52.202;0.154;2023-05-10T10:00:40;6.85;;;1.73;;
70406;SDS011;57821;52.202;0.154;2023-05-10T10:03:15;6.53;;;1.85;;
70406;SDS011;57821;52.202;0.154;2023-05-10T10:05:43;7.85;;;1.55;;
70406;SDS011;57821;52.202;0.154;2023-05-10T10:08:11;7.50;;;1.63;;
70406;SDS011;57821;52.202;0.154;2023-05-10T10:10:38;7.55;;;1.40;;
70406;SDS011;57821;52.202;0.154;2023-05-10T10:13:05;6.70;;;1.70;;
70406;SDS011;57821;52.202;0.154;2023-05-10T10:15:33;7.10;;;1.67;;
70406;SDS011;57821;52.202;0.154;2023-05-10T10:18:02;7.22;;;1.45;;
70406;SDS011;57821;52.202;0.154;2023-05-10T10:20:29;6.50;;;1.50;;
70406;SDS011;57821;52.202;0.154;2023-05-10T10:22:56;5.25;;;0.85;;
70406;SDS011;57821;52.202;0.154;2023-05-10T10:25:22;6.03;;;1.10;;
70406;SDS011;57821;52.202;0.154;2023-05-10T10:35:42;8.80;;;1.50;;
70406;SDS011;57821;52.202;0.154;2023-05-10T10:38:11;6.45;;;1.38;;
70406;SDS011;57821;52.202;0.154;2023-05-10T10:40:39;4.80;;;1.08;;
70406;SDS011;57821;52.202;0.154;2023-05-10T10:48:37;7.55;;;1.20;;
70406;SDS011;57821;52.202;0.154;2023-05-10T10:51:04;5.40;;;1.10;;
70406;SDS011;57821;52.202;0.154;2023-05-10T10:53:30;6.38;;;0.90;;
70406;SDS011;57821;52.202;0.154;2023-05-10T10:56:10;6.85;;;1.20;;
70406;SDS011;57821;52.202;0.154;2023-05-10T10:58:39;5.55;;;0.70;;
70406;SDS011;57821;52.202;0.154;2023-05-10T11:01:10;5.25;;;0.85;;
70406;SDS011;57821;52.202;0.154;2023-05-10T11:03:37;5.65;;;0.95;;
70406;SDS011;57821;52.202;0.154;2023-05-10T11:06:06;5.30;;;0.80;;
70406;SDS011;57821;52.202;0.154;2023-05-10T11:08:33;5.65;;;1.08;;
70406;SDS011;57821;52.202;0.154;2023-05-10T11:11:07;7.57;;;1.25;;
70406;SDS011;57821;52.202;0.154;2023-05-10T11:16:13;5.47;;;1.00;;
70406;SDS011;57821;52.202;0.154;2023-05-10T11:21:29;4.15;;;1.00;;
70406;SDS011;57821;52.202;0.154;2023-05-10T11:23:57;6.25;;;1.23;;
70406;SDS011;57821;52.202;0.154;2023-05-10T11:26:25;7.40;;;1.05;;
70406;SDS011;57821;52.202;0.154;2023-05-10T11:29:01;6.00;;;1.02;;
70406;SDS011;57821;52.202;0.154;2023-05-10T11:31:28;7.35;;;1.48;;
70406;SDS011;57821;52.202;0.154;2023-05-10T11:33:57;6.20;;;1.45;;
70406;SDS011;57821;52.202;0.154;2023-05-10T11:36:28;4.00;;;1.05;;
70406;SDS011;57821;52.202;0.154;2023-05-10T11:38:58;5.32;;;1.08;;
70406;SDS011;57821;52.202;0.154;2023-05-10T11:41:29;6.95;;;1.10;;
70406;SDS011;57821;52.202;0.154;2023-05-10T11:43:57;4.15;;;0.80;;
70406;SDS011;57821;52.202;0.154;2023-05-10T11:46:24;6.35;;;1.15;;
70406;SDS011;57821;52.202;0.154;2023-05-10T11:48:53;6.57;;;1.05;;
70406;SDS011;57821;52.202;0.154;2023-05-10T11:51:23;5.28;;;0.93;;
70406;SDS011;57821;52.202;0.154;2023-05-10T11:53:52;5.30;;;0.80;;
70406;SDS011;57821;52.202;0.154;2023-05-10T11:56:21;5.57;;;1.08;;
70406;SDS011;57821;52.202;0.154;2023-05-10T11:58:55;5.55;;;0.95;;
70406;SDS011;57821;52.202;0.154;2023-05-10T12:01:26;7.05;;;1.35;;
70406;SDS011;57821;52.202;0.154;2023-05-10T12:03:54;7.80;;;1.10;;
70406;SDS011;57821;52.202;0.154;2023-05-10T12:06:22;6.72;;;1.30;;
70406;SDS011;57821;52.202;0.154;2023-05-10T12:08:52;6.25;;;1.02;;
70406;SDS011;57821;52.202;0.154;2023-05-10T12:11:19;4.57;;;1.00;;
70406;SDS011;57821;52.202;0.154;2023-05-10T12:13:45;6.00;;;0.98;;
70406;SDS011;57821;52.202;0.154;2023-05-10T12:16:12;6.53;;;1.20;;
70406;SDS011;57821;52.202;0.154;2023-05-10T12:18:40;5.32;;;1.15;;
70406;SDS011;57821;52.202;0.154;2023-05-10T12:21:07;5.35;;;1.10;;
70406;SDS011;57821;52.202;0.154;2023-05-10T12:23:36;8.45;;;1.42;;
70406;SDS011;57821;52.202;0.154;2023-05-10T12:26:02;5.78;;;1.10;;
70406;SDS011;57821;52.202;0.154;2023-05-10T12:28:30;7.68;;;1.70;;
70406;SDS011;57821;52.202;0.154;2023-05-10T12:30:58;8.32;;;1.23;;
70406;SDS011;57821;52.202;0.154;2023-05-10T12:33:26;3.88;;;1.02;;
70406;SDS011;57821;52.202;0.154;2023-05-10T12:35:54;6.25;;;1.25;;
70406;SDS011;57821;52.202;0.154;2023-05-10T12:38:39;8.23;;;1.05;;
70406;SDS011;57821;52.202;0.154;2023-05-10T12:41:09;9.20;;;1.55;;
70406;SDS011;57821;52.202;0.154;2023-05-10T12:43:36;3.13;;;0.73;;
70406;SDS011;57821;52.202;0.154;2023-05-10T12:46:04;5.28;;;0.98;;
70406;SDS011;57821;52.202;0.154;2023-05-10T12:48:35;6.00;;;1.00;;
70406;SDS011;57821;52.202;0.154;2023-05-10T12:51:02;6.82;;;1.20;;
70406;SDS011;57821;52.202;0.154;2023-05-10T12:53:30;5.28;;;0.90;;
70406;SDS011;57821;52.202;0.154;2023-05-10T12:55:57;4.57;;;0.88;;
70406;SDS011;57821;52.202;0.154;2023-05-10T12:58:23;4.47;;;0.93;;
70406;SDS011;57821;52.202;0.154;2023-05-10T13:01:01;7.60;;;1.40;;
70406;SDS011;57821;52.202;0.154;2023-05-10T13:03:27;5.65;;;1.20;;
70406;SDS011;57821;52.202;0.154;2023-05-10T13:05:54;5.70;;;1.15;;
70406;SDS011;57821;52.202;0.154;2023-05-10T13:08:20;5.97;;;1.33;;
70406;SDS011;57821;52.202;0.154;2023-05-10T13:10:47;7.93;;;1.50;;
70406;SDS011;57821;52.202;0.154;2023-05-10T13:13:14;7.18;;;1.35;;
70406;SDS011;57821;52.202;0.154;2023-05-10T13:15:41;9.65;;;1.60;;
70406;SDS011;57821;52.202;0.154;2023-05-10T13:18:08;6.65;;;1.50;;
70406;SDS011;57821;52.202;0.154;2023-05-10T13:20:34;5.53;;;1.30;;
70406;SDS011;57821;52.202;0.154;2023-05-10T13:23:01;9.43;;;1.45;;
70406;SDS011;57821;52.202;0.154;2023-05-10T13:25:27;6.10;;;1.40;;
70406;SDS011;57821;52.202;0.154;2023-05-10T13:27:54;5.95;;;1.23;;
70406;SDS011;57821;52.202;0.154;2023-05-10T13:30:21;6.75;;;1.20;;
70406;SDS011;57821;52.202;0.154;2023-05-10T13:32:48;8.70;;;1.65;;
70406;SDS011;57821;52.202;0.154;2023-05-10T13:35:14;7.88;;;1.55;;
70406;SDS011;57821;52.202;0.154;2023-05-10T13:37:41;4.50;;;1.00;;
70406;SDS011;57821;52.202;0.154;2023-05-10T13:40:08;6.53;;;1.33;;
70406;SDS011;57821;52.202;0.154;2023-05-10T13:42:35;7.20;;;1.15;;
70406;SDS011;57821;52.202;0.154;2023-05-10T13:45:01;6.20;;;1.38;;
70406;SDS011;57821;52.202;0.154;2023-05-10T13:47:28;9.55;;;1.42;;
70406;SDS011;57821;52.202;0.154;2023-05-10T13:49:55;5.72;;;1.10;;
70406;SDS011;57821;52.202;0.154;2023-05-10T13:52:22;5.90;;;1.15;;
70406;SDS011;57821;52.202;0.154;2023-05-10T13:54:48;5.80;;;1.10;;
70406;SDS011;57821;52.202;0.154;2023-05-10T13:57:15;3.22;;;0.88;;
70406;SDS011;57821;52.202;0.154;2023-05-10T13:59:42;3.15;;;0.90;;
70406;SDS011;57821;52.202;0.154;2023-05-10T14:02:08;4.53;;;1.00;;
70406;SDS011;57821;52.202;0.154;2023-05-10T14:04:35;6.47;;;1.40;;
70406;SDS011;57821;52.202;0.154;2023-05-10T14:07:02;5.15;;;1.20;;
70406;SDS011;57821;52.202;0.154;2023-05-10T14:09:28;6.43;;;1.20;;
70406;SDS011;57821;52.202;0.154;2023-05-10T14:11:55;8.93;;;1.38;;
70406;SDS011;57821;52.202;0.154;2023-05-10T14:14:22;6.88;;;1.42;;
70406;SDS011;57821;52.202;0.154;2023-05-10T14:16:48;7.15;;;1.23;;
70406;SDS011;57821;52.202;0.154;2023-05-10T14:19:15;7.28;;;1.65;;
70406;SDS011;57821;52.202;0.154;2023-05-10T14:21:42;5.55;;;1.40;;
70406;SDS011;57821;52.202;0.154;2023-05-10T14:24:09;5.40;;;1.33;;
70406;SDS011;57821;52.202;0.154;2023-05-10T14:26:35;10.80;;;1.63;;
70406;SDS011;57821;52.202;0.154;2023-05-10T14:29:02;9.80;;;1.98;;
70406;SDS011;57821;52.202;0.154;2023-05-10T14:31:28;6.47;;;1.85;;
70406;SDS011;57821;52.202;0.154;2023-05-10T14:33:55;4.80;;;1.38;;
70406;SDS011;57821;52.202;0.154;2023-05-10T14:36:21;6.32;;;1.98;;
70406;SDS011;57821;52.202;0.154;2023-05-10T14:38:48;6.70;;;1.92;;
70406;SDS011;57821;52.202;0.154;2023-05-10T14:41:15;6.00;;;1.73;;
70406;SDS011;57821;52.202;0.154;2023-05-10T14:43:41;6.65;;;1.23;;
70406;SDS011;57821;52.202;0.154;2023-05-10T14:46:08;7.28;;;1.67;;
70406;SDS011;57821;52.202;0.154;2023-05-10T14:48:35;3.92;;;1.38;;
70406;SDS011;57821;52.202;0.154;2023-05-10T14:51:01;6.03;;;1.10;;
70406;SDS011;57821;52.202;0.154;2023-05-10T14:53:28;3.78;;;0.90;;
70406;SDS011;57821;52.202;0.154;2023-05-10T14:55:55;3.20;;;0.60;;
70406;SDS011;57821;52.202;0.154;2023-05-10T14:58:21;3.58;;;0.60;;
70406;SDS011;57821;52.202;0.154;2023-05-10T15:00:48;2.70;;;0.40;;
70406;SDS011;57821;52.202;0.154;2023-05-10T15:03:15;2.45;;;0.50;;
70406;SDS011;57821;52.202;0.154;2023-05-10T15:05:42;3.88;;;0.70;;
70406;SDS011;57821;52.202;0.154;2023-05-10T15:08:09;4.22;;;0.60;;
70406;SDS011;57821;52.202;0.154;2023-05-10T15:10:35;3.05;;;0.50;;
70406;SDS011;57821;52.202;0.154;2023-05-10T15:13:03;3.50;;;0.60;;
70406;SDS011;57821;52.202;0.154;2023-05-10T15:15:30;4.50;;;0.73;;
70406;SDS011;57821;52.202;0.154;2023-05-10T15:17:57;4.00;;;0.57;;
70406;SDS011;57821;52.202;0.154;2023-05-10T15:20:24;3.85;;;0.70;;
70406;SDS011;57821;52.202;0.154;2023-05-10T15:22:50;4.47;;;0.73;;
70406;SDS011;57821;52.202;0.154;2023-05-10T15:25:17;5.35;;;0.85;;
70406;SDS011;57821;52.202;0.154;2023-05-10T15:27:44;4.55;;;0.80;;